• Join FlightAware (Why Join?)
  • Login
  • US Flag 
06:04PM EDT


 

Airport Tracker/Info


-or-


 

Live Flight TrackerFlight Track Log ✈ MTN8955 ✈ 11-May-2013 ✈ KBWI - KSBY

Flight Track Log - Related Links

Times and Time Zones

All times are in EDT time to prevent confusion due to time zone crossing. See the MTN8955 flight status page for this flight to view local times or setup timezone preferences in your user account.

Time Position Orientation Groundspeed Altitude Reporting Facility
EDT Latitude Longitude Course Direction KTS MPH feet Rate Location/Type
09:57AM 39.2167 -76.6667 180° South 119 137 800  Level Potomac TRACON
09:58AM 39.2500 -76.6500 21° North 142 163 1,400 660 Climbing Potomac TRACON
09:59AM 39.2833 -76.6333 21° North 144 166 2,200 720 Climbing Potomac TRACON
10:00AM 39.2833 -76.6000 90° East 131 151 2,900 660 Climbing Potomac TRACON
10:01AM 39.2500 -76.5667 142° Southeast 120 138 3,600 600 Climbing Potomac TRACON
10:02AM 39.0804 -76.4667 180° South  Level FlightAware Approximate
10:02AM 39.2167 -76.5500 159° South 126 145 4,200  Level Potomac TRACON
10:03AM 39.2000 -76.5167 123° Southeast 126 145 4,800 360 Climbing Potomac TRACON
10:04AM 39.1667 -76.4833 142° Southeast 144 166 5,000 60 Climbing Potomac TRACON
10:05AM 39.1333 -76.4500 142° Southeast 159 183 5,000  Level Potomac TRACON
10:06AM 39.1000 -76.4167 142° Southeast 162 186 5,000  Level Potomac TRACON
10:07AM 39.0667 -76.3667 131° Southeast 166 191 5,000  Level Potomac TRACON
10:08AM 39.0333 -76.3333 142° Southeast 165 190 5,000  Level Potomac TRACON
10:09AM 39.0000 -76.2833 131° Southeast 161 185 5,000  Level Potomac TRACON
10:10AM 38.9667 -76.2500 142° Southeast 161 185 5,000  Level Potomac TRACON
10:11AM 38.9431 -76.2269 143° Southeast 162 186 5,100  Climbing Washington Center
10:12AM 38.9139 -76.1892 135° Southeast 165 190 5,100  Level Washington Center
10:13AM 38.8786 -76.1489 138° Southeast 166 191 5,100  Level Washington Center
10:14AM 38.8433 -76.1061 137° Southeast 166 191 5,100  Level Washington Center
10:15AM 38.8081 -76.0658 138° Southeast 164 189 5,100  Level Washington Center
10:16AM 38.7750 -76.0256 136° Southeast 164 189 5,100  Level Washington Center
10:17AM 38.7439 -75.9883 137° Southeast 163 188 5,100  Level Washington Center
10:18AM 38.7044 -75.9428 138° Southeast 163 188 5,100 -240 Level Washington Center
10:19AM 38.6731 -75.9081 139° Southeast 166 191 4,700 -540 Descending Washington Center
10:20AM 38.6419 -75.8656 133° Southeast 180 207 4,200 -600 Descending Washington Center
10:21AM 38.6025 -75.8200 138° Southeast 190 219 3,600 -600 Descending Washington Center
10:22AM 38.5650 -75.7775 138° Southeast 182 209 3,100 -360 Descending Washington Center
10:23AM 38.5317 -75.7378 137° Southeast 166 191 2,900 -360 Descending Washington Center
10:24AM 38.4964 -75.6978 138° Southeast 163 188 2,400 -420 Descending Washington Center
10:25AM 38.4631 -75.6581 137° Southeast 165 190 2,100 -420 Descending Washington Center
10:26AM 38.4317 -75.6183 135° Southeast 157 181 1,600 -300 Descending Washington Center
10:27AM 38.3961 -75.5783 139° Southeast 163 188 1,600  Level Washington Center